Time;durP1;ratioP1;P1;durP2;ratioP2;P2;SDS_P1;SDS_P2;PMS_P1;PMS_P2;Temp;Humidity;BMP_temperature;BMP_pressure;BME280_temperature;BME280_humidity;BME280_pressure;Samples;Min_cycle;Max_cycle;Signal;HPM_P1;HPM_P2
2021/08/29 00:00:03;;;;;;;;;7.25;5.25;;;;;19.89;45.50;101715.09;5061467;28;45257;-55
2021/08/29 00:02:28;;;;;;;;;5.75;5.75;;;;;19.86;45.26;101712.50;5062530;28;45316;-55
2021/08/29 00:04:53;;;;;;;;;5.00;5.00;;;;;19.83;45.65;101717.97;5062159;28;45376;-55
2021/08/29 00:07:19;;;;;;;;;6.25;6.00;;;;;19.82;45.74;101717.06;5062244;28;50945;-55
2021/08/29 00:09:44;;;;;;;;;7.00;5.25;;;;;19.78;45.20;101704.78;5062599;28;45189;-55
2021/08/29 00:12:10;;;;;;;;;8.00;7.00;;;;;19.76;45.47;101701.28;5074626;28;45489;-54
2021/08/29 00:14:36;;;;;;;;;7.00;6.00;;;;;19.74;45.41;101703.16;5062308;28;45234;-55
2021/08/29 00:17:01;;;;;;;;;5.25;5.25;;;;;19.72;46.01;101703.22;5062340;28;45320;-55
2021/08/29 00:19:26;;;;;;;;;6.75;5.00;;;;;19.69;45.61;101699.81;5062546;28;45154;-55
2021/08/29 00:21:52;;;;;;;;;6.75;6.00;;;;;19.67;45.90;101694.50;5072675;28;45387;-55
2021/08/29 00:24:17;;;;;;;;;7.50;5.00;;;;;19.62;45.81;101685.81;5062499;28;46005;-55
2021/08/29 00:26:42;;;;;;;;;9.50;7.50;;;;;19.60;46.03;101683.19;5062229;28;45274;-55
2021/08/29 00:29:07;;;;;;;;;6.75;5.50;;;;;19.55;46.11;101682.50;5061099;28;45371;-55
2021/08/29 00:31:33;;;;;;;;;6.25;6.00;;;;;19.54;45.64;101680.75;5062028;28;45535;-55
2021/08/29 00:33:58;;;;;;;;;7.00;6.50;;;;;19.51;46.21;101680.88;5062207;28;46185;-54
2021/08/29 00:36:24;;;;;;;;;9.00;6.50;;;;;19.48;46.58;101681.88;5061714;28;45340;-55
2021/08/29 00:38:49;;;;;;;;;6.00;5.50;;;;;19.45;45.93;101679.31;5071978;28;45623;-54
2021/08/29 00:41:14;;;;;;;;;4.00;4.00;;;;;19.43;46.40;101680.28;5068301;28;45492;-55
2021/08/29 00:43:40;;;;;;;;;8.50;7.00;;;;;19.39;46.05;101679.53;5062028;28;45586;-55
2021/08/29 00:46:07;;;;;;;;;5.75;5.75;;;;;19.34;46.34;101673.50;5061866;28;45355;-54
2021/08/29 00:48:33;;;;;;;;;6.75;5.50;;;;;19.34;46.33;101689.50;5062079;28;45269;-55
2021/08/29 00:50:58;;;;;;;;;5.00;4.25;;;;;19.30;46.39;101686.06;5061647;28;45261;-55
2021/08/29 00:53:24;;;;;;;;;4.50;4.50;;;;;19.30;46.10;101682.53;5061866;28;45335;-54
2021/08/29 00:55:51;;;;;;;;;9.00;6.50;;;;;19.25;46.15;101669.38;5061578;28;45292;-54
2021/08/29 00:58:21;;;;;;;;;6.75;5.00;;;;;19.25;46.61;101679.16;5061966;28;45256;-55
2021/08/29 01:00:47;;;;;;;;;5.50;4.50;;;;;19.24;46.33;101682.75;5061599;28;45458;-54
2021/08/29 01:03:20;;;;;;;;;5.75;5.75;;;;;19.21;46.23;101677.56;5061682;28;46386;-54
2021/08/29 01:06:02;;;;;;;;;8.25;7.00;;;;;19.20;46.50;101675.81;5060706;28;45475;-55
2021/08/29 01:08:33;;;;;;;;;8.50;5.50;;;;;19.16;47.06;101670.56;5061705;28;45359;-54
2021/08/29 01:11:06;;;;;;;;;7.00;5.75;;;;;19.14;46.77;101667.09;5061415;28;45307;-54
2021/08/29 01:13:35;;;;;;;;;10.50;8.50;;;;;19.12;46.69;101671.59;5061232;28;45313;-55
2021/08/29 01:16:04;;;;;;;;;5.25;5.25;;;;;19.10;46.51;101670.78;5080024;28;45323;-55
2021/08/29 01:18:30;;;;;;;;;5.75;4.25;;;;;19.08;46.90;101667.31;5068029;28;45367;-53
2021/08/29 01:21:04;;;;;;;;;5.25;5.25;;;;;19.06;47.07;101663.84;5059652;28;45389;-54
2021/08/29 01:23:33;;;;;;;;;9.50;7.25;;;;;19.04;46.75;101665.66;5061033;28;45540;-55
2021/08/29 01:26:27;;;;;;;;;6.50;5.25;;;;;19.02;46.94;101670.19;5061355;28;45338;-55
2021/08/29 01:28:55;;;;;;;;;6.00;5.00;;;;;19.00;46.76;101672.03;5056049;28;45502;-54
2021/08/29 01:31:21;;;;;;;;;5.50;4.25;;;;;18.96;47.01;101668.59;5061149;28;45186;-55
2021/08/29 01:33:49;;;;;;;;;7.25;5.25;;;;;18.93;46.91;101666.06;5060762;28;45494;-54
2021/08/29 01:36:15;;;;;;;;;7.25;6.00;;;;;18.92;46.92;101666.13;5060835;28;45306;-54
2021/08/29 01:38:43;;;;;;;;;7.25;5.50;;;;;18.91;47.03;101661.72;5068757;28;45327;-55
2021/08/29 01:41:11;;;;;;;;;6.00;5.75;;;;;18.91;47.29;101675.88;5080027;28;45478;-54
2021/08/29 01:43:39;;;;;;;;;5.00;4.75;;;;;18.88;47.47;101673.31;5081157;28;46394;-54
2021/08/29 01:46:05;;;;;;;;;5.75;5.75;;;;;18.87;47.34;101668.00;5066008;28;45337;-53
2021/08/29 01:48:31;;;;;;;;;6.50;4.00;;;;;18.85;47.25;101676.06;5081375;28;45330;-54
2021/08/29 01:50:56;;;;;;;;;5.50;5.50;;;;;18.84;47.19;101671.66;5062488;28;45466;-54
2021/08/29 01:53:21;;;;;;;;;6.25;5.00;;;;;18.79;47.23;101666.50;5060828;28;45928;-53
2021/08/29 01:55:49;;;;;;;;;7.00;6.00;;;;;18.80;47.38;101668.25;5060765;28;45401;-53
2021/08/29 01:58:15;;;;;;;;;9.00;7.00;;;;;18.78;47.67;101670.09;5063323;28;45214;-55
2021/08/29 02:00:53;;;;;;;;;6.75;5.00;;;;;18.75;47.48;101670.16;5060640;28;45253;-53
2021/08/29 02:03:19;;;;;;;;;8.00;6.00;;;;;18.74;47.34;101672.91;5060583;28;45342;-54
2021/08/29 02:05:53;;;;;;;;;6.75;6.00;;;;;18.72;47.64;101675.63;5060412;28;45344;-55
2021/08/29 02:08:20;;;;;;;;;6.25;5.00;;;;;18.67;47.91;101677.56;5060706;28;45319;-54
2021/08/29 02:10:49;;;;;;;;;10.25;6.50;;;;;18.67;47.84;101683.75;5060513;28;45311;-54
2021/08/29 02:13:16;;;;;;;;;7.50;6.50;;;;;18.65;47.71;101674.06;5060303;28;45339;-55
2021/08/29 02:15:51;;;;;;;;;6.25;6.00;;;;;18.62;47.92;101679.50;5060254;28;45380;-54
2021/08/29 02:18:20;;;;;;;;;7.50;5.00;;;;;18.61;47.72;101672.44;5058143;28;45482;-54
2021/08/29 02:20:48;;;;;;;;;6.75;6.25;;;;;18.58;47.78;101685.84;5058696;28;45391;-54
2021/08/29 02:23:15;;;;;;;;;8.25;5.50;;;;;18.55;47.88;101689.47;5060076;28;46038;-54
2021/08/29 02:25:44;;;;;;;;;7.50;6.75;;;;;18.54;47.89;101692.19;5060166;28;45359;-54
2021/08/29 02:28:11;;;;;;;;;9.25;7.75;;;;;18.50;47.73;101691.41;5060440;28;45315;-54
2021/08/29 02:30:36;;;;;;;;;10.75;7.25;;;;;18.49;48.02;101692.34;5060117;28;45496;-54
2021/08/29 02:33:02;;;;;;;;;10.00;8.25;;;;;18.47;48.41;101691.53;5060132;28;45237;-55
2021/08/29 02:35:28;;;;;;;;;13.75;10.75;;;;;18.46;48.31;101693.28;5059794;28;45277;-53
2021/08/29 02:37:54;;;;;;;;;13.25;8.50;;;;;18.44;48.29;101695.16;5062968;28;45391;-54
2021/08/29 02:40:20;;;;;;;;;12.00;9.75;;;;;18.42;47.97;101689.00;5075813;28;45991;-54
2021/08/29 02:42:48;;;;;;;;;10.00;9.00;;;;;18.41;48.41;101692.56;5088953;27;45278;-54
2021/08/29 02:45:17;;;;;;;;;8.00;7.00;;;;;18.40;48.28;101690.88;5080354;28;45306;-54
2021/08/29 02:47:42;;;;;;;;;7.75;7.75;;;;;18.39;48.17;101686.47;5080414;28;45348;-54
2021/08/29 02:50:09;;;;;;;;;7.75;7.25;;;;;18.39;48.17;101694.44;5079988;28;45510;-54
2021/08/29 02:52:37;;;;;;;;;9.00;7.25;;;;;18.39;48.59;101694.44;5080217;28;45256;-54
2021/08/29 02:55:04;;;;;;;;;8.25;8.25;;;;;18.35;48.70;101676.81;5080184;28;45446;-53
2021/08/29 02:57:33;;;;;;;;;12.75;9.75;;;;;18.39;48.44;101693.53;5080174;28;45323;-54
2021/08/29 02:59:58;;;;;;;;;7.00;7.00;;;;;18.37;48.77;101688.28;5078814;28;45489;-53
2021/08/29 03:02:24;;;;;;;;;9.00;7.50;;;;;18.34;48.69;101683.94;5078819;28;46112;-53
2021/08/29 03:04:49;;;;;;;;;11.75;9.00;;;;;18.38;48.65;101683.81;5080262;28;45170;-54
2021/08/29 03:07:14;;;;;;;;;10.75;7.25;;;;;18.36;48.74;101675.88;5080282;28;45632;-53
2021/08/29 03:09:40;;;;;;;;;9.00;8.75;;;;;18.38;48.72;101684.72;5080181;28;45489;-54
2021/08/29 03:12:10;;;;;;;;;9.50;7.75;;;;;18.38;48.67;101675.84;5079744;28;46259;-54
2021/08/29 03:14:38;;;;;;;;;12.75;12.00;;;;;18.37;48.74;101680.31;5079912;28;45392;-54
2021/08/29 03:17:04;;;;;;;;;9.50;7.00;;;;;18.39;48.69;101683.78;5080080;28;45453;-54
2021/08/29 03:19:30;;;;;;;;;11.25;9.75;;;;;18.37;48.81;101674.97;5079726;28;45476;-53
2021/08/29 03:21:55;;;;;;;;;8.25;8.25;;;;;18.37;49.07;101680.31;5079351;28;46312;-54
2021/08/29 03:24:21;;;;;;;;;10.00;9.50;;;;;18.36;48.92;101681.22;5079894;28;45234;-53
2021/08/29 03:26:47;;;;;;;;;10.75;8.75;;;;;18.36;49.08;101678.56;5079848;28;45272;-54
2021/08/29 03:29:13;;;;;;;;;11.00;10.00;;;;;18.34;48.69;101673.28;5081601;28;45469;-53
2021/08/29 03:31:40;;;;;;;;;15.50;12.25;;;;;18.34;49.11;101672.44;5083245;28;45401;-52
2021/08/29 03:34:07;;;;;;;;;15.50;12.00;;;;;18.33;49.13;101676.84;5083372;28;45434;-53
2021/08/29 03:36:33;;;;;;;;;15.25;15.00;;;;;18.33;48.94;101679.53;5082957;28;45558;-55
2021/08/29 03:39:03;;;;;;;;;14.00;13.25;;;;;18.32;49.01;101671.59;5080988;28;45312;-53
2021/08/29 03:41:30;;;;;;;;;12.75;9.00;;;;;18.31;49.26;101673.41;5083002;28;45460;-54
2021/08/29 03:43:55;;;;;;;;;13.25;11.75;;;;;18.29;49.12;101669.06;5083039;28;45331;-52
2021/08/29 03:46:22;;;;;;;;;15.50;14.25;;;;;18.33;49.19;101668.03;5083176;28;45553;-52
2021/08/29 03:48:48;;;;;;;;;15.00;13.25;;;;;18.33;49.25;101665.38;5083290;28;45255;-54
2021/08/29 03:51:16;;;;;;;;;13.50;12.00;;;;;18.32;49.42;101659.16;5082665;28;46273;-54
2021/08/29 03:53:43;;;;;;;;;12.50;10.50;;;;;18.32;49.49;101660.97;5083098;28;45323;-54
2021/08/29 03:56:12;;;;;;;;;11.50;11.00;;;;;18.33;49.29;101655.56;5081606;28;45297;-54
2021/08/29 03:58:40;;;;;;;;;8.75;8.50;;;;;18.32;49.55;101655.63;5082917;28;45308;-54
2021/08/29 04:01:06;;;;;;;;;12.25;10.50;;;;;18.32;49.50;101655.63;5081450;28;47009;-54
2021/08/29 04:03:32;;;;;;;;;14.00;12.25;;;;;18.33;49.27;101652.91;5083026;28;45338;-54
2021/08/29 04:06:00;;;;;;;;;13.25;10.75;;;;;18.33;49.28;101658.25;5082677;28;45543;-52
2021/08/29 04:08:34;;;;;;;;;14.75;11.00;;;;;18.32;49.42;101655.63;5082979;28;45326;-53
2021/08/29 04:11:01;;;;;;;;;14.50;12.75;;;;;18.33;49.44;101654.72;5082528;28;45484;-54
2021/08/29 04:13:27;;;;;;;;;14.25;11.00;;;;;18.34;49.41;101661.78;5082750;28;45296;-54
2021/08/29 04:15:54;;;;;;;;;11.00;10.75;;;;;18.34;49.82;101664.44;5082490;28;45169;-54
2021/08/29 04:18:21;;;;;;;;;12.50;9.25;;;;;18.33;49.47;101658.25;5082628;28;45181;-53
2021/08/29 04:20:47;;;;;;;;;13.75;12.00;;;;;18.32;49.63;101658.28;5082022;28;46029;-55
2021/08/29 04:23:12;;;;;;;;;10.75;10.75;;;;;18.33;49.61;101660.03;5069184;28;45614;-55
2021/08/29 04:25:38;;;;;;;;;11.75;10.75;;;;;18.32;49.53;101663.63;5081152;28;45425;-55
2021/08/29 04:28:04;;;;;;;;;8.50;7.75;;;;;18.32;49.68;101660.97;5068981;28;45470;-52
2021/08/29 04:30:30;;;;;;;;;11.75;8.00;;;;;18.31;49.35;101664.53;5080961;28;45315;-53
2021/08/29 04:32:55;;;;;;;;;9.25;7.75;;;;;18.31;49.49;101659.22;5082440;28;45320;-52
2021/08/29 04:35:20;;;;;;;;;11.50;10.50;;;;;18.29;49.80;101658.41;5082163;28;45236;-53
2021/08/29 04:37:46;;;;;;;;;11.25;8.00;;;;;18.27;49.85;101663.75;5081020;28;45442;-53
2021/08/29 04:40:12;;;;;;;;;13.00;9.25;;;;;18.27;49.83;101663.75;5080903;27;45294;-53
2021/08/29 04:42:37;;;;;;;;;12.25;10.00;;;;;18.26;49.79;101658.50;5082105;28;45408;-53
2021/08/29 04:45:03;;;;;;;;;13.00;9.25;;;;;18.26;49.81;101662.00;5082284;28;45424;-53
2021/08/29 04:47:28;;;;;;;;;14.00;12.00;;;;;18.25;49.55;101662.06;5082076;28;45154;-53
2021/08/29 04:49:53;;;;;;;;;12.25;9.00;;;;;18.25;49.73;101662.94;5081665;28;46088;-52
2021/08/29 04:52:18;;;;;;;;;15.00;11.75;;;;;18.25;49.70;101662.94;5082176;28;45174;-54
2021/08/29 04:54:44;;;;;;;;;12.50;9.00;;;;;18.25;49.68;101656.75;5082347;28;45204;-53
2021/08/29 04:57:09;;;;;;;;;13.25;9.75;;;;;18.25;49.73;101659.41;5082026;28;45510;-52
2021/08/29 04:59:34;;;;;;;;;10.75;10.75;;;;;18.25;49.90;101662.06;5081969;28;45196;-53
2021/08/29 05:02:00;;;;;;;;;11.00;9.75;;;;;18.24;49.93;101662.97;5081971;28;45241;-51
2021/08/29 05:04:25;;;;;;;;;11.50;10.50;;;;;18.22;49.90;101662.16;5081783;28;45222;-53
2021/08/29 05:06:50;;;;;;;;;14.50;12.75;;;;;18.23;49.79;101659.47;5081903;28;45444;-51
2021/08/29 05:09:16;;;;;;;;;13.25;10.75;;;;;18.21;49.94;101668.41;5081625;28;47116;-52
2021/08/29 05:11:41;;;;;;;;;12.25;12.25;;;;;18.18;49.90;101667.56;5081823;28;45285;-54
2021/08/29 05:14:06;;;;;;;;;13.75;13.00;;;;;18.15;50.08;101670.34;5081682;28;45274;-53
2021/08/29 05:16:32;;;;;;;;;13.75;12.75;;;;;18.13;49.84;101663.34;5081765;28;45349;-52
2021/08/29 05:18:57;;;;;;;;;16.00;10.00;;;;;18.13;50.16;101668.66;5081401;28;45210;-53
2021/08/29 05:21:22;;;;;;;;;16.50;14.50;;;;;18.13;49.96;101668.66;5081482;28;45297;-54
2021/08/29 05:23:48;;;;;;;;;17.75;14.50;;;;;18.11;50.13;101668.72;5081472;28;45497;-54
2021/08/29 05:26:13;;;;;;;;;15.50;14.00;;;;;18.11;50.12;101679.34;5081713;28;45310;-52
2021/08/29 05:28:38;;;;;;;;;15.50;14.25;;;;;18.11;50.02;101678.47;5081151;28;46084;-53
2021/08/29 05:31:04;;;;;;;;;17.75;14.75;;;;;18.09;50.09;101678.50;5080190;28;45347;-53
2021/08/29 05:33:29;;;;;;;;;18.00;15.75;;;;;18.09;50.19;101686.50;5081394;28;45449;-54
2021/08/29 05:35:54;;;;;;;;;9.00;7.25;;;;;18.09;50.06;101688.28;5081267;28;45449;-54
2021/08/29 05:38:20;;;;;;;;;13.00;10.50;;;;;18.07;50.28;101682.13;5079321;28;46040;-53
2021/08/29 05:40:45;;;;;;;;;13.25;12.00;;;;;18.07;50.26;101693.63;5070004;28;45458;-53
2021/08/29 05:43:10;;;;;;;;;15.00;13.25;;;;;18.07;50.06;101685.66;5077702;28;45263;-53
2021/08/29 05:45:35;;;;;;;;;14.25;11.50;;;;;18.06;50.18;101689.22;5081351;28;45373;-53
2021/08/29 05:48:01;;;;;;;;;12.25;12.00;;;;;18.04;50.29;101683.09;5081027;28;46376;-53
2021/08/29 05:50:26;;;;;;;;;13.25;12.75;;;;;18.07;50.24;101684.78;5080856;28;45456;-53
2021/08/29 05:52:52;;;;;;;;;15.75;14.00;;;;;18.04;50.42;101693.75;5080828;28;45499;-54
2021/08/29 05:55:17;;;;;;;;;12.50;12.50;;;;;18.04;50.26;101685.75;5079928;28;45464;-54
2021/08/29 05:57:43;;;;;;;;;17.00;15.50;;;;;18.05;50.39;101683.97;5080657;28;46040;-53
2021/08/29 06:00:09;;;;;;;;;18.00;16.00;;;;;18.03;50.37;101684.00;5080794;28;45283;-53
2021/08/29 06:02:34;;;;;;;;;17.00;15.50;;;;;18.04;49.85;101680.44;5081074;28;45286;-52
2021/08/29 06:05:01;;;;;;;;;15.50;14.25;;;;;18.04;50.34;101677.78;5080727;28;45228;-54
2021/08/29 06:07:26;;;;;;;;;14.00;11.75;;;;;18.03;50.51;101676.03;5080829;28;47070;-54
2021/08/29 06:09:51;;;;;;;;;19.75;14.25;;;;;18.03;50.26;101679.56;5080786;28;45273;-54
2021/08/29 06:12:17;;;;;;;;;13.75;12.25;;;;;18.06;50.54;101685.72;5080733;28;45433;-53
2021/08/29 06:14:42;;;;;;;;;15.25;14.25;;;;;18.08;50.29;101686.53;5080925;28;45223;-53
2021/08/29 06:17:07;;;;;;;;;16.25;14.75;;;;;18.10;50.54;101684.69;5080550;28;45239;-53
2021/08/29 06:19:33;;;;;;;;;16.00;15.00;;;;;18.10;50.56;101682.91;5080556;28;45489;-53
2021/08/29 06:21:58;;;;;;;;;13.50;13.25;;;;;18.10;50.43;101690.91;5062134;28;45714;-53
2021/08/29 06:24:23;;;;;;;;;11.50;11.00;;;;;18.10;50.52;101687.34;5080654;28;45478;-52
2021/08/29 06:26:49;;;;;;;;;17.00;16.75;;;;;18.14;50.71;101691.69;5080454;28;46094;-53
2021/08/29 06:29:16;;;;;;;;;16.00;15.50;;;;;18.15;50.56;101680.97;5080579;28;45260;-53
2021/08/29 06:31:41;;;;;;;;;32.50;28.00;;;;;18.17;50.44;101679.13;5080617;28;45319;-54
2021/08/29 06:34:07;;;;;;;;;21.25;16.75;;;;;18.11;50.51;101670.47;5080476;28;45579;-53
2021/08/29 06:36:32;;;;;;;;;18.50;16.00;;;;;18.21;50.59;101687.88;5080073;28;46110;-54
2021/08/29 06:38:58;;;;;;;;;15.25;14.75;;;;;18.25;50.40;101691.31;5079130;28;45480;-53
2021/08/29 06:41:27;;;;;;;;;17.50;15.75;;;;;18.27;50.47;101687.69;5080451;27;45410;-54
2021/08/29 06:43:53;;;;;;;;;20.00;19.50;;;;;18.28;50.54;101689.44;5080402;27;45185;-53
2021/08/29 06:46:19;;;;;;;;;17.50;16.25;;;;;18.31;50.75;101688.47;5080054;28;45439;-50
2021/08/29 06:48:45;;;;;;;;;18.00;14.50;;;;;18.34;50.58;101691.91;5080249;28;45327;-54
2021/08/29 06:51:10;;;;;;;;;17.50;16.25;;;;;18.35;50.54;101688.34;5080005;28;45295;-54
2021/08/29 06:53:36;;;;;;;;;15.25;14.75;;;;;18.40;50.63;101701.50;5080132;28;45394;-53
2021/08/29 06:56:01;;;;;;;;;20.50;17.25;;;;;18.42;50.60;101689.00;5078691;28;45320;-54
2021/08/29 06:58:26;;;;;;;;;17.50;15.00;;;;;18.45;50.57;101699.56;5080141;28;45315;-54
2021/08/29 07:00:51;;;;;;;;;16.25;15.25;;;;;18.48;50.58;101704.78;5080304;28;45333;-53
2021/08/29 07:03:17;;;;;;;;;15.50;15.25;;;;;18.51;50.77;101699.38;5080525;28;45262;-54
2021/08/29 07:05:42;;;;;;;;;14.00;12.25;;;;;18.53;50.76;101707.28;5083483;28;45397;-53
2021/08/29 07:08:08;;;;;;;;;15.00;12.00;;;;;18.54;50.59;101692.19;5083786;28;45248;-54
2021/08/29 07:10:33;;;;;;;;;13.00;12.00;;;;;18.57;50.67;101692.09;5068915;28;45491;-53
2021/08/29 07:12:58;;;;;;;;;11.75;11.00;;;;;18.57;50.79;101698.28;5083544;28;45528;-54
2021/08/29 07:15:24;;;;;;;;;12.75;9.00;;;;;18.60;50.68;101689.31;5083482;28;45233;-54
2021/08/29 07:17:49;;;;;;;;;12.75;12.25;;;;;18.62;50.66;101698.16;5074333;28;45328;-54
2021/08/29 07:20:14;;;;;;;;;13.25;11.75;;;;;18.65;50.71;101700.69;5077513;28;45340;-52
2021/08/29 07:22:40;;;;;;;;;6.75;6.00;;;;;18.67;50.75;101698.84;5083339;28;45545;-55
2021/08/29 07:25:06;;;;;;;;;12.25;12.25;;;;;18.68;50.54;101697.94;5083221;28;46024;-53
2021/08/29 07:27:31;;;;;;;;;13.25;10.25;;;;;18.71;50.85;101710.28;5083395;28;45394;-55
2021/08/29 07:29:56;;;;;;;;;11.25;10.00;;;;;18.73;50.65;101703.09;5083091;28;45285;-53
2021/08/29 07:32:22;;;;;;;;;11.50;9.50;;;;;18.73;50.64;101709.31;5083484;28;45468;-54
2021/08/29 07:34:47;;;;;;;;;13.75;11.75;;;;;18.74;50.86;101705.72;5081602;28;45508;-54
2021/08/29 07:37:12;;;;;;;;;8.75;8.75;;;;;18.73;50.32;101701.31;5083146;28;48203;-54
2021/08/29 07:39:38;;;;;;;;;11.75;9.75;;;;;18.77;50.87;101710.06;5081728;28;45521;-55
2021/08/29 07:42:03;;;;;;;;;10.75;7.25;;;;;18.77;50.94;101704.75;5083022;28;45460;-55
2021/08/29 07:44:28;;;;;;;;;13.50;11.25;;;;;18.79;50.69;101701.13;5082901;28;47141;-54
2021/08/29 07:46:54;;;;;;;;;13.50;11.75;;;;;18.79;50.75;101709.09;5083254;28;45437;-53
2021/08/29 07:49:20;;;;;;;;;16.75;14.50;;;;;18.82;50.93;101709.00;5082945;28;45340;-54
2021/08/29 07:51:45;;;;;;;;;16.25;13.25;;;;;18.85;50.76;101708.00;5082871;28;45247;-54
2021/08/29 07:54:11;;;;;;;;;17.75;13.75;;;;;18.87;50.93;101707.97;5082991;28;45350;-54
2021/08/29 07:56:36;;;;;;;;;19.25;17.75;;;;;18.88;50.51;101713.25;5082929;28;45376;-53
2021/08/29 07:59:01;;;;;;;;;18.25;16.25;;;;;18.90;50.32;101705.22;5082889;28;45459;-54
2021/08/29 08:01:27;;;;;;;;;15.50;12.75;;;;;18.92;50.80;101716.72;5082890;28;45383;-54
2021/08/29 08:03:52;;;;;;;;;19.50;14.50;;;;;18.93;50.75;101708.66;5082820;28;49855;-51
2021/08/29 08:06:17;;;;;;;;;19.50;17.00;;;;;18.96;50.60;101713.03;5082643;28;45317;-54
2021/08/29 08:08:43;;;;;;;;;15.00;14.50;;;;;18.97;50.87;101712.09;5082937;28;45351;-53
2021/08/29 08:11:08;;;;;;;;;18.00;16.25;;;;;18.98;50.80;101711.16;5082615;28;45220;-53
2021/08/29 08:13:33;;;;;;;;;17.00;16.75;;;;;19.02;50.39;101714.59;5082366;28;45212;-54
2021/08/29 08:16:00;;;;;;;;;17.00;14.75;;;;;19.03;50.86;101717.22;5082583;28;45173;-54
2021/08/29 08:18:26;;;;;;;;;19.25;16.00;;;;;19.05;51.15;101717.16;5082674;28;45229;-55
2021/08/29 08:20:51;;;;;;;;;18.50;15.00;;;;;19.07;50.68;101715.28;5082283;28;45675;-53
2021/08/29 08:23:17;;;;;;;;;17.50;16.25;;;;;19.06;50.70;101708.25;5082285;28;45260;-54
2021/08/29 08:25:42;;;;;;;;;21.50;18.50;;;;;19.10;50.69;101708.06;5081274;28;45250;-54
2021/08/29 08:28:07;;;;;;;;;20.75;18.25;;;;;19.12;50.62;101711.56;5068850;28;45218;-54
2021/08/29 08:30:33;;;;;;;;;22.75;20.00;;;;;19.14;50.80;101698.19;5077622;28;45629;-55
2021/08/29 08:32:58;;;;;;;;;18.75;18.50;;;;;19.19;50.83;101706.03;5061969;28;46033;-54
2021/08/29 08:35:23;;;;;;;;;17.50;16.50;;;;;19.23;51.01;101699.66;5061664;28;45322;-54
2021/08/29 08:37:49;;;;;;;;;17.00;15.00;;;;;19.26;50.67;101697.75;5064091;28;45612;-54
2021/08/29 08:40:14;;;;;;;;;18.75;15.75;;;;;19.30;50.24;101709.19;5081414;27;45303;-54
2021/08/29 08:42:39;;;;;;;;;20.25;18.50;;;;;19.32;50.25;101700.22;5082024;28;45375;-54
2021/08/29 08:45:07;;;;;;;;;19.50;16.00;;;;;19.38;50.77;101720.41;5082005;28;45296;-54
2021/08/29 08:47:36;;;;;;;;;16.00;15.50;;;;;19.40;50.40;101713.25;5082393;28;45290;-54
2021/08/29 08:50:03;;;;;;;;;17.00;16.00;;;;;19.44;50.63;101709.53;5081523;28;45244;-53
2021/08/29 08:52:30;;;;;;;;;17.75;15.00;;;;;19.47;50.44;101709.44;5081852;28;46272;-54
2021/08/29 08:55:00;;;;;;;;;19.25;17.00;;;;;19.51;50.34;101709.31;5081972;28;45314;-55
2021/08/29 08:57:26;;;;;;;;;17.25;14.25;;;;;19.51;50.46;101702.22;5081898;28;45248;-54
2021/08/29 08:59:52;;;;;;;;;16.00;14.75;;;;;19.59;50.37;101709.94;5081843;28;45462;-53
2021/08/29 09:02:20;;;;;;;;;14.25;13.00;;;;;19.63;50.63;101709.75;5081732;28;46297;-55
2021/08/29 09:04:47;;;;;;;;;14.25;13.50;;;;;19.68;50.62;101706.91;5081743;28;45326;-55
2021/08/29 09:07:12;;;;;;;;;18.25;14.00;;;;;19.72;50.64;101716.56;5081798;28;45318;-54
2021/08/29 09:09:38;;;;;;;;;15.75;14.25;;;;;19.74;50.67;101709.34;5081857;28;45304;-53
2021/08/29 09:12:04;;;;;;;;;17.25;17.25;;;;;19.78;50.13;101705.63;5081413;28;45207;-55
2021/08/29 09:14:45;;;;;;;;;15.00;14.25;;;;;19.81;50.19;101712.69;5080470;28;45300;-54
2021/08/29 09:17:40;;;;;;;;;16.25;14.25;;;;;19.84;50.47;101699.25;5081479;28;45335;-54
2021/08/29 09:20:25;;;;;;;;;14.50;13.00;;;;;19.88;50.54;101695.53;5048953;28;45491;-54
2021/08/29 09:22:57;;;;;;;;;15.00;13.25;;;;;19.91;50.51;101692.75;5061087;28;45462;-54
2021/08/29 09:25:32;;;;;;;;;14.25;11.75;;;;;19.95;50.29;101691.69;5061160;28;45616;-54
2021/08/29 09:28:00;;;;;;;;;12.50;12.25;;;;;20.02;49.94;101692.31;5060677;28;45280;-54
2021/08/29 09:30:28;;;;;;;;;10.75;9.50;;;;;20.07;50.20;101689.47;5060833;28;45565;-55
2021/08/29 09:33:03;;;;;;;;;14.25;12.00;;;;;20.13;50.40;101689.25;5071574;28;46165;-55
2021/08/29 09:35:31;;;;;;;;;12.25;12.00;;;;;20.19;50.26;101689.00;5079663;28;45882;-55
2021/08/29 09:37:58;;;;;;;;;13.25;10.00;;;;;20.22;50.41;101693.34;5070880;27;45269;-55
2021/08/29 09:40:34;;;;;;;;;11.25;10.00;;;;;20.28;50.31;101693.09;5081225;28;45321;-54
2021/08/29 09:43:04;;;;;;;;;15.75;13.25;;;;;20.33;50.13;101693.78;5080904;28;46095;-56
2021/08/29 09:45:31;;;;;;;;;11.00;10.50;;;;;20.37;49.83;101692.72;5081186;28;45226;-55
2021/08/29 09:48:05;;;;;;;;;11.50;11.00;;;;;20.42;49.58;101690.75;5066324;28;45636;-56
2021/08/29 09:50:33;;;;;;;;;11.50;11.00;;;;;20.48;49.99;101692.31;5080885;28;45508;-55
2021/08/29 09:53:20;;;;;;;;;11.50;10.50;;;;;20.53;49.61;101676.97;5080956;28;46315;-55
2021/08/29 09:55:48;;;;;;;;;13.25;11.25;;;;;20.58;49.58;101687.47;5080899;28;45386;-55
2021/08/29 09:58:32;;;;;;;;;15.00;12.50;;;;;20.62;49.61;101687.25;5081117;28;45214;-57
2021/08/29 10:01:11;;;;;;;;;10.75;10.00;;;;;20.66;49.91;101693.34;5080766;28;45553;-54
2021/08/29 10:03:37;;;;;;;;;14.25;12.75;;;;;20.68;49.37;101688.81;5080903;28;45343;-54
2021/08/29 10:06:25;;;;;;;;;9.00;9.00;;;;;20.73;49.74;101691.31;5080478;28;45440;-53
2021/08/29 10:08:54;;;;;;;;;10.75;9.50;;;;;20.76;49.52;101689.38;5080919;28;45326;-54
2021/08/29 10:11:21;;;;;;;;;11.50;10.50;;;;;20.77;49.79;101680.44;5080681;28;45469;-54
2021/08/29 10:13:47;;;;;;;;;11.00;11.00;;;;;20.83;49.28;101697.13;5065632;28;47169;-55
2021/08/29 10:16:14;;;;;;;;;12.75;10.00;;;;;20.86;49.17;101683.66;5080672;28;45370;-55
2021/08/29 10:18:42;;;;;;;;;8.75;8.75;;;;;20.89;49.28;101683.50;5079529;28;45385;-56
2021/08/29 10:21:16;;;;;;;;;12.00;12.00;;;;;20.92;49.48;101689.59;5080429;28;45382;-52
2021/08/29 10:23:45;;;;;;;;;9.50;9.50;;;;;20.97;49.24;101683.19;5080235;28;46157;-54
2021/08/29 10:26:12;;;;;;;;;13.25;10.25;;;;;21.01;49.00;101688.34;5080736;28;45290;-55
2021/08/29 10:28:45;;;;;;;;;9.50;7.50;;;;;21.07;49.34;101682.72;5080581;28;45317;-54
2021/08/29 10:31:13;;;;;;;;;13.50;11.25;;;;;21.10;49.03;101693.25;5080530;28;45246;-54
2021/08/29 10:33:40;;;;;;;;;9.75;9.75;;;;;21.17;49.23;101688.53;5061765;28;46260;-55
2021/08/29 10:36:07;;;;;;;;;9.00;8.75;;;;;21.24;48.77;101684.66;5070283;28;45398;-55
2021/08/29 10:38:34;;;;;;;;;11.00;10.00;;;;;21.30;49.13;101691.53;5077999;28;45350;-55
2021/08/29 10:41:00;;;;;;;;;10.00;10.00;;;;;21.38;48.88;101692.06;5080362;28;45239;-55
2021/08/29 10:43:28;;;;;;;;;11.00;9.50;;;;;21.44;49.26;101680.22;5080059;28;45265;-54
2021/08/29 10:45:54;;;;;;;;;8.75;8.00;;;;;21.52;48.94;101682.53;5080346;28;45357;-54
2021/08/29 10:48:21;;;;;;;;;10.50;10.00;;;;;21.59;49.17;101676.03;5080311;28;45371;-55
2021/08/29 10:50:48;;;;;;;;;9.00;7.50;;;;;21.65;48.80;101672.22;5080157;28;45440;-53
2021/08/29 10:53:40;;;;;;;;;9.00;9.00;;;;;21.74;48.65;101672.63;5080117;28;46350;-54
2021/08/29 10:56:14;;;;;;;;;10.75;9.50;;;;;21.84;48.56;101677.56;5080124;28;45256;-57
2021/08/29 10:58:40;;;;;;;;;11.00;10.00;;;;;21.91;48.97;101669.16;5080185;28;45461;-55
2021/08/29 11:01:05;;;;;;;;;8.00;7.00;;;;;21.99;48.28;101668.81;5080062;28;45383;-55
2021/08/29 11:03:31;;;;;;;;;9.50;9.50;;;;;22.07;48.69;101669.31;5080131;28;45379;-53
2021/08/29 11:05:56;;;;;;;;;11.00;9.00;;;;;22.16;48.69;101657.31;5079866;28;45332;-54
2021/08/29 11:08:30;;;;;;;;;10.50;9.50;;;;;22.24;48.56;101659.59;5080295;28;45313;-54
2021/08/29 11:10:56;;;;;;;;;11.50;10.00;;;;;22.36;48.49;101661.69;5060330;28;45466;-54
2021/08/29 11:13:41;;;;;;;;;12.25;11.00;;;;;22.46;48.51;101656.75;5071178;28;46185;-55